Guenther Schulte — VRGK8 — position and weather

sailwx.info

Track history (hours):
 
Tides and Currents Weather Stations Pressure Air Temp Water Temp Dewpoint Dewpoint Depression Visibility Wind Speed Wind Dir Waves Ship Positions

Guenther Schulte

Last reported at 2014-Dec-19 06:28 UTC. Time now 2014-Dec-22 19:30 UTC.
Position S 36°13' E 174°57'.

Length 231 m; draft 11.4 m.

Type: Ship (hazmat cat C). MMSI: 477728800.

Date/timePositionNaut miles runAvg speedWind from/ knotsBaromVisibWave heightAir tempDewpointWater temp
2014-Dec-19 06:28S 36°13' E 174°57'1011.2
2014-Dec-19 05:33S 36°23' E 174°60'1111.0
2014-Dec-19 04:33S 36°34' E 175°00'10 9.8
2014-Dec-19 03:33S 36°42' E 174°53'9 9.2
2014-Dec-19 02:33S 36°50' E 174°49'1 1.4
2014-Dec-19 01:33S 36°51' E 174°47'0 0.0
2014-Dec-19 00:33S 36°51' E 174°47'0 0.0
2014-Dec-18 23:33S 36°51' E 174°47'0 0.0
2014-Dec-18 22:31S 36°51' E 174°47'0 0.0
2014-Dec-18 21:31S 36°51' E 174°47'0 0.0
2014-Dec-18 20:31S 36°51' E 174°47'0 0.0
2014-Dec-18 19:31S 36°51' E 174°47'0 0.0
2014-Dec-18 18:31S 36°51' E 174°47'0 0.0
2014-Dec-18 17:28S 36°51' E 174°47'0 0.1
2014-Dec-18 16:31S 36°51' E 174°47'0 0.0
2014-Dec-18 15:31S 36°51' E 174°47'0 0.0
2014-Dec-18 14:31S 36°51' E 174°47'0 0.0
2014-Dec-18 13:31S 36°51' E 174°47'0 0.0
2014-Dec-18 12:31S 36°51' E 174°47'0 0.0
2014-Dec-18 11:31S 36°51' E 174°47'0 0.0
2014-Dec-18 10:31S 36°51' E 174°47'0 0.0
2014-Dec-18 09:33S 36°51' E 174°47'6 5.7
2014-Dec-18 08:33S 36°45' E 174°50'7 7.2
2014-Dec-18 07:33S 36°40' E 174°55'8 8.2
2014-Dec-18 06:33S 36°33' E 175°01'9 9.0
2014-Dec-18 05:34S 36°27' E 175°10'11 9.4
2014-Dec-18 04:21S 36°22' E 175°23'  
Track history (hours):
 
Tides and Currents Weather Stations Pressure Air Temp Water Temp Dewpoint Dewpoint Depression Visibility Wind Speed Wind Dir Waves Ship Positions

Guenther Schulte

Last reported at 2014-Dec-19 06:28 UTC. Time now 2014-Dec-22 19:30 UTC.
Position S 36°13' E 174°57'.

Length 231 m; draft 11.4 m.

Type: Ship (hazmat cat C). MMSI: 477728800.

Date/timePositionNaut miles runAvg speedWind from/ knotsBaromVisibWave heightAir tempDewpointWater temp
2014-Dec-19 06:28S 36°13' E 174°57'1011.2
2014-Dec-19 05:33S 36°23' E 174°60'1111.0
2014-Dec-19 04:33S 36°34' E 175°00'10 9.8
2014-Dec-19 03:33S 36°42' E 174°53'9 9.2
2014-Dec-19 02:33S 36°50' E 174°49'1 1.4
2014-Dec-19 01:33S 36°51' E 174°47'0 0.0
2014-Dec-19 00:33S 36°51' E 174°47'0 0.0
2014-Dec-18 23:33S 36°51' E 174°47'0 0.0
2014-Dec-18 22:31S 36°51' E 174°47'0 0.0
2014-Dec-18 21:31S 36°51' E 174°47'0 0.0
2014-Dec-18 20:31S 36°51' E 174°47'0 0.0
2014-Dec-18 19:31S 36°51' E 174°47'0 0.0
2014-Dec-18 18:31S 36°51' E 174°47'0 0.0
2014-Dec-18 17:28S 36°51' E 174°47'0 0.1
2014-Dec-18 16:31S 36°51' E 174°47'0 0.0
2014-Dec-18 15:31S 36°51' E 174°47'0 0.0
2014-Dec-18 14:31S 36°51' E 174°47'0 0.0
2014-Dec-18 13:31S 36°51' E 174°47'0 0.0
2014-Dec-18 12:31S 36°51' E 174°47'0 0.0
2014-Dec-18 11:31S 36°51' E 174°47'0 0.0
2014-Dec-18 10:31S 36°51' E 174°47'0 0.0
2014-Dec-18 09:33S 36°51' E 174°47'6 5.7
2014-Dec-18 08:33S 36°45' E 174°50'7 7.2
2014-Dec-18 07:33S 36°40' E 174°55'8 8.2
2014-Dec-18 06:33S 36°33' E 175°01'9 9.0
2014-Dec-18 05:34S 36°27' E 175°10'11 9.4
2014-Dec-18 04:21S 36°22' E 175°23'  

Dump ship's entire track history